Current Weather

NSFA McMurdo Sound

NSFA McMurdo Sound, Antarctica (NZCM)

Report from: Friday, November 25, 2022 2:55 PM UTC
Current time: Sunday, November 27, 2022 9:11 AM UTC

Nearby weather
Weather history
Weather forecast

Temperature-5.8°C (21.6°F)
Wind chill-14.2°C (6.4°F)
Dew point-8.7°C (16.3°F)
Winds 17 kts (8.7 m/s, 19.6 mph) North (350°)
Wind gusts 26 kts (13.4 m/s, 29.9 mph)
Peak wind 29 kts (14.9 m/s, 33.4 mph) North-Northwest (340°) at 07:57
Visibility6.2 mi. (10 km)
Clouds Sky clear
Altimeter28.91 in.Hg (979 mB)
Relative humidity80 %
Density altitude-1,332 ft. (-406 m)
Sea-level pressure107.9 kPa (1079 mB, 31.87 in.Hg)
Remarks Fully automated report
Automated weather observing station with precipitation discriminator
Pressure falling more quickly
Flight conditions Visual Meteorological Conditions
Raw dataNZCM 251455Z AUTO 35017G26KT 9999 CLR M06/M09 A2891 RMK AO2 PK WND 34029/1357 SLP793 T10581087 58040
An error has occurred. This application may no longer respond until reloaded. Reload 🗙